Grantville, Georgia
Current Conditions -  °F | °C
As of 6:55 AM on Monday 24 Nov 2014 (Local Time) from KCCO Reporting Station
Overcast Overcast  
Wind Chill: 63°   Ceiling: 1800
Heat Index: 63°   Visibility: 10mi
Dew Point: 62°   Wind: 6mph
Humidity: 99%   Direction: 220°SW
Pressure: 29.78"   Gusts: NA
Location:  33.23°N, 84.84°W
Report Text: KCCO 241155Z AUTO 22005KT 10SM OVC018 17/17 A2978 RMK AO2 T01710169 10175 20167
Loading
Personal Weather Stations






























Interactive Weather Map New forecast layout! Learn more

10-Day Weather Forecast

Advertisements
Track Severe Weather on mobile